METAR Formatted Surface Weather Observation
Issued by NWS

Home | Current Version | Previous Version | Text Only | Print | Product List | Glossary On
Versions: 1 2
736
SAUS42 KTAE 290646
MTR1J0
METAR K1J0 290558Z AUTO 24004KT 10SM CLR 27/25 A2985 RMK AO2 SLP067
T02720250 10300 20267 403560228 58009 $



USA.gov is the U.S. government's official web portal to all federal, state and local government web resources and services.